sensor_id;sensor_type;location;lat;lon;timestamp;P1;durP1;ratioP1;P2;durP2;ratioP2
9799;SDS011;4939;52.00085300;4.17406100;2023-05-29T00:01:20;12.15;;;1.98;;
9799;SDS011;4939;52.00085300;4.17406100;2023-05-29T00:03:46;13.85;;;2.50;;
9799;SDS011;4939;52.00085300;4.17406100;2023-05-29T00:06:13;11.13;;;1.92;;
9799;SDS011;4939;52.00085300;4.17406100;2023-05-29T00:08:38;11.48;;;2.05;;
9799;SDS011;4939;52.00085300;4.17406100;2023-05-29T00:11:04;11.93;;;2.20;;
9799;SDS011;4939;52.00085300;4.17406100;2023-05-29T00:13:30;9.73;;;2.60;;
9799;SDS011;4939;52.00085300;4.17406100;2023-05-29T00:15:57;14.35;;;2.60;;
9799;SDS011;4939;52.00085300;4.17406100;2023-05-29T00:18:24;14.52;;;2.70;;
9799;SDS011;4939;52.00085300;4.17406100;2023-05-29T00:20:51;14.73;;;2.67;;
9799;SDS011;4939;52.00085300;4.17406100;2023-05-29T00:23:18;15.07;;;3.20;;
9799;SDS011;4939;52.00085300;4.17406100;2023-05-29T00:25:44;15.02;;;3.30;;
9799;SDS011;4939;52.00085300;4.17406100;2023-05-29T00:28:10;15.07;;;3.47;;
9799;SDS011;4939;52.00085300;4.17406100;2023-05-29T00:30:38;16.95;;;3.10;;
9799;SDS011;4939;52.00085300;4.17406100;2023-05-29T00:33:04;16.83;;;3.50;;
9799;SDS011;4939;52.00085300;4.17406100;2023-05-29T00:35:30;12.98;;;3.40;;
9799;SDS011;4939;52.00085300;4.17406100;2023-05-29T00:37:57;12.52;;;2.42;;
9799;SDS011;4939;52.00085300;4.17406100;2023-05-29T00:40:23;11.82;;;2.63;;
9799;SDS011;4939;52.00085300;4.17406100;2023-05-29T00:42:48;15.32;;;2.60;;
9799;SDS011;4939;52.00085300;4.17406100;2023-05-29T00:45:16;15.88;;;2.47;;
9799;SDS011;4939;52.00085300;4.17406100;2023-05-29T00:47:42;13.43;;;2.30;;
9799;SDS011;4939;52.00085300;4.17406100;2023-05-29T00:50:09;14.38;;;2.00;;
9799;SDS011;4939;52.00085300;4.17406100;2023-05-29T00:52:35;10.80;;;2.40;;
9799;SDS011;4939;52.00085300;4.17406100;2023-05-29T00:55:04;14.07;;;2.33;;
9799;SDS011;4939;52.00085300;4.17406100;2023-05-29T00:57:30;11.40;;;2.08;;
9799;SDS011;4939;52.00085300;4.17406100;2023-05-29T00:59:59;10.18;;;1.70;;
9799;SDS011;4939;52.00085300;4.17406100;2023-05-29T01:02:29;12.20;;;1.90;;
9799;SDS011;4939;52.00085300;4.17406100;2023-05-29T01:04:55;14.25;;;2.00;;
9799;SDS011;4939;52.00085300;4.17406100;2023-05-29T01:07:23;7.60;;;1.70;;
9799;SDS011;4939;52.00085300;4.17406100;2023-05-29T01:09:48;9.93;;;1.70;;
9799;SDS011;4939;52.00085300;4.17406100;2023-05-29T01:17:34;15.23;;;2.00;;
9799;SDS011;4939;52.00085300;4.17406100;2023-05-29T01:28:37;11.57;;;2.13;;
9799;SDS011;4939;52.00085300;4.17406100;2023-05-29T01:31:07;12.25;;;1.88;;
9799;SDS011;4939;52.00085300;4.17406100;2023-05-29T01:33:34;12.07;;;1.60;;
9799;SDS011;4939;52.00085300;4.17406100;2023-05-29T01:36:05;8.93;;;1.92;;
9799;SDS011;4939;52.00085300;4.17406100;2023-05-29T01:38:35;11.05;;;1.70;;
9799;SDS011;4939;52.00085300;4.17406100;2023-05-29T01:41:01;8.30;;;1.90;;
9799;SDS011;4939;52.00085300;4.17406100;2023-05-29T01:43:29;11.32;;;1.42;;
9799;SDS011;4939;52.00085300;4.17406100;2023-05-29T01:45:57;15.75;;;1.80;;
9799;SDS011;4939;52.00085300;4.17406100;2023-05-29T01:48:24;11.25;;;1.70;;
9799;SDS011;4939;52.00085300;4.17406100;2023-05-29T01:50:50;10.68;;;1.63;;
9799;SDS011;4939;52.00085300;4.17406100;2023-05-29T01:53:17;11.43;;;1.80;;
9799;SDS011;4939;52.00085300;4.17406100;2023-05-29T01:55:42;11.30;;;1.70;;
9799;SDS011;4939;52.00085300;4.17406100;2023-05-29T01:58:08;15.00;;;1.80;;
9799;SDS011;4939;52.00085300;4.17406100;2023-05-29T02:00:35;9.15;;;1.70;;
9799;SDS011;4939;52.00085300;4.17406100;2023-05-29T02:03:01;11.00;;;1.50;;
9799;SDS011;4939;52.00085300;4.17406100;2023-05-29T02:05:27;9.18;;;1.77;;
9799;SDS011;4939;52.00085300;4.17406100;2023-05-29T02:07:54;14.07;;;2.42;;
9799;SDS011;4939;52.00085300;4.17406100;2023-05-29T02:10:27;12.57;;;2.05;;
9799;SDS011;4939;52.00085300;4.17406100;2023-05-29T02:13:06;15.60;;;1.77;;
9799;SDS011;4939;52.00085300;4.17406100;2023-05-29T02:15:32;11.55;;;1.88;;
9799;SDS011;4939;52.00085300;4.17406100;2023-05-29T02:17:57;12.25;;;1.63;;
9799;SDS011;4939;52.00085300;4.17406100;2023-05-29T02:20:33;12.48;;;1.40;;
9799;SDS011;4939;52.00085300;4.17406100;2023-05-29T02:22:59;9.30;;;1.92;;
9799;SDS011;4939;52.00085300;4.17406100;2023-05-29T02:25:25;18.60;;;3.25;;
9799;SDS011;4939;52.00085300;4.17406100;2023-05-29T02:27:50;10.57;;;1.70;;
9799;SDS011;4939;52.00085300;4.17406100;2023-05-29T02:30:16;12.88;;;1.77;;
9799;SDS011;4939;52.00085300;4.17406100;2023-05-29T02:32:42;11.82;;;1.60;;
9799;SDS011;4939;52.00085300;4.17406100;2023-05-29T02:35:07;16.00;;;2.28;;
9799;SDS011;4939;52.00085300;4.17406100;2023-05-29T02:37:33;13.23;;;1.98;;
9799;SDS011;4939;52.00085300;4.17406100;2023-05-29T02:39:59;16.67;;;2.10;;
9799;SDS011;4939;52.00085300;4.17406100;2023-05-29T02:42:24;13.52;;;2.33;;
9799;SDS011;4939;52.00085300;4.17406100;2023-05-29T02:44:50;10.77;;;2.08;;
9799;SDS011;4939;52.00085300;4.17406100;2023-05-29T02:47:17;10.00;;;1.63;;
9799;SDS011;4939;52.00085300;4.17406100;2023-05-29T02:49:42;12.77;;;1.67;;
9799;SDS011;4939;52.00085300;4.17406100;2023-05-29T02:52:08;11.70;;;1.95;;
9799;SDS011;4939;52.00085300;4.17406100;2023-05-29T02:54:33;14.30;;;1.80;;
9799;SDS011;4939;52.00085300;4.17406100;2023-05-29T02:56:59;11.88;;;1.70;;
9799;SDS011;4939;52.00085300;4.17406100;2023-05-29T02:59:25;13.57;;;1.88;;
9799;SDS011;4939;52.00085300;4.17406100;2023-05-29T03:01:50;7.05;;;1.50;;
9799;SDS011;4939;52.00085300;4.17406100;2023-05-29T03:04:16;8.57;;;1.77;;
9799;SDS011;4939;52.00085300;4.17406100;2023-05-29T03:06:42;8.90;;;2.00;;
9799;SDS011;4939;52.00085300;4.17406100;2023-05-29T03:09:08;17.55;;;2.20;;
9799;SDS011;4939;52.00085300;4.17406100;2023-05-29T03:11:33;10.95;;;1.67;;
9799;SDS011;4939;52.00085300;4.17406100;2023-05-29T03:14:01;13.77;;;1.95;;
9799;SDS011;4939;52.00085300;4.17406100;2023-05-29T03:16:26;10.15;;;1.63;;
9799;SDS011;4939;52.00085300;4.17406100;2023-05-29T03:18:54;13.48;;;1.70;;
9799;SDS011;4939;52.00085300;4.17406100;2023-05-29T03:21:20;10.30;;;1.80;;
9799;SDS011;4939;52.00085300;4.17406100;2023-05-29T03:23:46;9.65;;;2.00;;
9799;SDS011;4939;52.00085300;4.17406100;2023-05-29T03:26:13;15.88;;;1.70;;
9799;SDS011;4939;52.00085300;4.17406100;2023-05-29T03:28:39;13.52;;;2.33;;
9799;SDS011;4939;52.00085300;4.17406100;2023-05-29T03:31:05;13.73;;;1.70;;
9799;SDS011;4939;52.00085300;4.17406100;2023-05-29T03:33:30;9.73;;;2.03;;
9799;SDS011;4939;52.00085300;4.17406100;2023-05-29T03:35:56;10.68;;;1.95;;
9799;SDS011;4939;52.00085300;4.17406100;2023-05-29T03:38:22;10.25;;;1.80;;
9799;SDS011;4939;52.00085300;4.17406100;2023-05-29T03:40:48;6.00;;;1.45;;
9799;SDS011;4939;52.00085300;4.17406100;2023-05-29T03:43:13;11.25;;;1.70;;
9799;SDS011;4939;52.00085300;4.17406100;2023-05-29T03:45:39;8.70;;;1.35;;
9799;SDS011;4939;52.00085300;4.17406100;2023-05-29T03:48:05;8.13;;;1.60;;
9799;SDS011;4939;52.00085300;4.17406100;2023-05-29T03:50:30;15.68;;;2.00;;
9799;SDS011;4939;52.00085300;4.17406100;2023-05-29T03:52:56;7.55;;;1.55;;
9799;SDS011;4939;52.00085300;4.17406100;2023-05-29T03:55:22;13.63;;;1.92;;
9799;SDS011;4939;52.00085300;4.17406100;2023-05-29T03:57:47;12.77;;;1.90;;
9799;SDS011;4939;52.00085300;4.17406100;2023-05-29T04:00:13;9.13;;;1.50;;
9799;SDS011;4939;52.00085300;4.17406100;2023-05-29T04:02:40;13.05;;;2.00;;
9799;SDS011;4939;52.00085300;4.17406100;2023-05-29T04:05:06;11.70;;;1.73;;
9799;SDS011;4939;52.00085300;4.17406100;2023-05-29T04:07:36;9.07;;;1.50;;
9799;SDS011;4939;52.00085300;4.17406100;2023-05-29T04:10:05;8.68;;;1.50;;
9799;SDS011;4939;52.00085300;4.17406100;2023-05-29T04:12:32;10.57;;;1.90;;
9799;SDS011;4939;52.00085300;4.17406100;2023-05-29T04:14:58;10.57;;;1.60;;
9799;SDS011;4939;52.00085300;4.17406100;2023-05-29T04:17:24;11.60;;;2.33;;
9799;SDS011;4939;52.00085300;4.17406100;2023-05-29T04:19:49;12.43;;;1.92;;
9799;SDS011;4939;52.00085300;4.17406100;2023-05-29T04:22:15;10.90;;;1.70;;
9799;SDS011;4939;52.00085300;4.17406100;2023-05-29T04:24:41;9.48;;;1.73;;
9799;SDS011;4939;52.00085300;4.17406100;2023-05-29T04:27:10;13.75;;;1.83;;
9799;SDS011;4939;52.00085300;4.17406100;2023-05-29T04:29:41;8.27;;;1.50;;
9799;SDS011;4939;52.00085300;4.17406100;2023-05-29T04:32:07;13.48;;;1.70;;
9799;SDS011;4939;52.00085300;4.17406100;2023-05-29T04:34:36;10.80;;;1.50;;
9799;SDS011;4939;52.00085300;4.17406100;2023-05-29T04:37:04;11.00;;;1.63;;
9799;SDS011;4939;52.00085300;4.17406100;2023-05-29T04:39:30;10.80;;;1.60;;
9799;SDS011;4939;52.00085300;4.17406100;2023-05-29T04:41:56;15.35;;;1.90;;
9799;SDS011;4939;52.00085300;4.17406100;2023-05-29T04:44:24;11.35;;;1.80;;
9799;SDS011;4939;52.00085300;4.17406100;2023-05-29T04:46:54;9.65;;;1.83;;
9799;SDS011;4939;52.00085300;4.17406100;2023-05-29T04:49:21;12.77;;;2.38;;
9799;SDS011;4939;52.00085300;4.17406100;2023-05-29T04:51:47;8.15;;;1.48;;
9799;SDS011;4939;52.00085300;4.17406100;2023-05-29T04:54:12;9.45;;;1.80;;
9799;SDS011;4939;52.00085300;4.17406100;2023-05-29T04:56:38;12.77;;;2.53;;
9799;SDS011;4939;52.00085300;4.17406100;2023-05-29T04:59:07;9.45;;;1.50;;
9799;SDS011;4939;52.00085300;4.17406100;2023-05-29T05:01:33;13.98;;;2.53;;
9799;SDS011;4939;52.00085300;4.17406100;2023-05-29T05:03:59;11.93;;;1.80;;
9799;SDS011;4939;52.00085300;4.17406100;2023-05-29T05:06:25;14.05;;;1.80;;
9799;SDS011;4939;52.00085300;4.17406100;2023-05-29T05:08:51;14.75;;;1.80;;
9799;SDS011;4939;52.00085300;4.17406100;2023-05-29T05:11:18;8.88;;;1.88;;
9799;SDS011;4939;52.00085300;4.17406100;2023-05-29T05:13:44;11.32;;;1.90;;
9799;SDS011;4939;52.00085300;4.17406100;2023-05-29T05:16:10;11.95;;;1.95;;
9799;SDS011;4939;52.00085300;4.17406100;2023-05-29T05:18:36;12.93;;;1.90;;
9799;SDS011;4939;52.00085300;4.17406100;2023-05-29T05:21:01;9.25;;;1.40;;
9799;SDS011;4939;52.00085300;4.17406100;2023-05-29T05:23:31;13.02;;;2.33;;
9799;SDS011;4939;52.00085300;4.17406100;2023-05-29T05:25:57;11.10;;;2.08;;
9799;SDS011;4939;52.00085300;4.17406100;2023-05-29T05:28:22;10.20;;;1.80;;
9799;SDS011;4939;52.00085300;4.17406100;2023-05-29T05:30:48;9.68;;;1.65;;
9799;SDS011;4939;52.00085300;4.17406100;2023-05-29T05:33:14;12.80;;;2.05;;
9799;SDS011;4939;52.00085300;4.17406100;2023-05-29T05:35:39;9.10;;;1.60;;
9799;SDS011;4939;52.00085300;4.17406100;2023-05-29T05:38:05;9.82;;;1.80;;
9799;SDS011;4939;52.00085300;4.17406100;2023-05-29T05:40:32;10.70;;;2.03;;
9799;SDS011;4939;52.00085300;4.17406100;2023-05-29T05:42:57;9.30;;;1.52;;
9799;SDS011;4939;52.00085300;4.17406100;2023-05-29T05:45:23;10.63;;;1.48;;
9799;SDS011;4939;52.00085300;4.17406100;2023-05-29T05:47:49;9.50;;;1.60;;
9799;SDS011;4939;52.00085300;4.17406100;2023-05-29T05:50:15;5.50;;;1.42;;
9799;SDS011;4939;52.00085300;4.17406100;2023-05-29T05:52:40;12.40;;;2.00;;
9799;SDS011;4939;52.00085300;4.17406100;2023-05-29T05:55:06;8.40;;;1.70;;
9799;SDS011;4939;52.00085300;4.17406100;2023-05-29T05:57:32;10.57;;;2.00;;
9799;SDS011;4939;52.00085300;4.17406100;2023-05-29T06:00:07;8.90;;;1.77;;
9799;SDS011;4939;52.00085300;4.17406100;2023-05-29T06:02:37;11.88;;;1.70;;
9799;SDS011;4939;52.00085300;4.17406100;2023-05-29T06:05:03;11.57;;;2.15;;
9799;SDS011;4939;52.00085300;4.17406100;2023-05-29T06:07:32;12.00;;;2.00;;
9799;SDS011;4939;52.00085300;4.17406100;2023-05-29T06:09:57;9.10;;;2.03;;
9799;SDS011;4939;52.00085300;4.17406100;2023-05-29T06:12:23;8.25;;;1.80;;
9799;SDS011;4939;52.00085300;4.17406100;2023-05-29T06:14:49;10.68;;;1.83;;
9799;SDS011;4939;52.00085300;4.17406100;2023-05-29T06:17:15;9.07;;;1.90;;
9799;SDS011;4939;52.00085300;4.17406100;2023-05-29T06:19:41;9.98;;;1.85;;
9799;SDS011;4939;52.00085300;4.17406100;2023-05-29T06:22:06;13.80;;;2.30;;
9799;SDS011;4939;52.00085300;4.17406100;2023-05-29T06:24:33;12.38;;;2.13;;
9799;SDS011;4939;52.00085300;4.17406100;2023-05-29T06:27:00;9.05;;;2.22;;
9799;SDS011;4939;52.00085300;4.17406100;2023-05-29T06:29:26;9.35;;;1.92;;
9799;SDS011;4939;52.00085300;4.17406100;2023-05-29T06:31:52;13.18;;;2.80;;
9799;SDS011;4939;52.00085300;4.17406100;2023-05-29T06:34:18;10.60;;;1.67;;
9799;SDS011;4939;52.00085300;4.17406100;2023-05-29T06:36:43;9.82;;;1.67;;
9799;SDS011;4939;52.00085300;4.17406100;2023-05-29T06:39:09;9.93;;;1.67;;
9799;SDS011;4939;52.00085300;4.17406100;2023-05-29T06:41:35;11.77;;;1.88;;
9799;SDS011;4939;52.00085300;4.17406100;2023-05-29T06:44:01;10.50;;;1.70;;
9799;SDS011;4939;52.00085300;4.17406100;2023-05-29T06:46:26;11.27;;;2.08;;
9799;SDS011;4939;52.00085300;4.17406100;2023-05-29T06:48:52;11.63;;;1.85;;
9799;SDS011;4939;52.00085300;4.17406100;2023-05-29T06:51:18;11.40;;;2.08;;
9799;SDS011;4939;52.00085300;4.17406100;2023-05-29T06:53:43;11.35;;;2.22;;
9799;SDS011;4939;52.00085300;4.17406100;2023-05-29T06:56:09;13.50;;;1.75;;
9799;SDS011;4939;52.00085300;4.17406100;2023-05-29T06:58:35;12.15;;;2.00;;
9799;SDS011;4939;52.00085300;4.17406100;2023-05-29T07:01:01;14.30;;;2.20;;
9799;SDS011;4939;52.00085300;4.17406100;2023-05-29T07:03:27;8.50;;;1.65;;
9799;SDS011;4939;52.00085300;4.17406100;2023-05-29T07:05:54;10.82;;;1.80;;
9799;SDS011;4939;52.00085300;4.17406100;2023-05-29T07:08:19;6.53;;;1.83;;
9799;SDS011;4939;52.00085300;4.17406100;2023-05-29T07:10:45;11.50;;;2.03;;
9799;SDS011;4939;52.00085300;4.17406100;2023-05-29T07:13:17;11.85;;;1.98;;
9799;SDS011;4939;52.00085300;4.17406100;2023-05-29T07:15:43;13.52;;;1.77;;
9799;SDS011;4939;52.00085300;4.17406100;2023-05-29T07:18:09;14.00;;;2.00;;
9799;SDS011;4939;52.00085300;4.17406100;2023-05-29T07:20:35;11.32;;;1.88;;
9799;SDS011;4939;52.00085300;4.17406100;2023-05-29T07:23:02;7.63;;;1.92;;
9799;SDS011;4939;52.00085300;4.17406100;2023-05-29T07:25:28;9.30;;;1.75;;
9799;SDS011;4939;52.00085300;4.17406100;2023-05-29T07:27:54;13.00;;;1.90;;
9799;SDS011;4939;52.00085300;4.17406100;2023-05-29T07:30:20;9.07;;;1.90;;
9799;SDS011;4939;52.00085300;4.17406100;2023-05-29T07:32:46;7.28;;;1.73;;
9799;SDS011;4939;52.00085300;4.17406100;2023-05-29T07:35:11;9.25;;;1.70;;
9799;SDS011;4939;52.00085300;4.17406100;2023-05-29T07:37:37;10.40;;;2.15;;
9799;SDS011;4939;52.00085300;4.17406100;2023-05-29T07:40:04;11.15;;;1.75;;
9799;SDS011;4939;52.00085300;4.17406100;2023-05-29T07:42:31;10.80;;;1.98;;
9799;SDS011;4939;52.00085300;4.17406100;2023-05-29T07:44:57;6.95;;;1.55;;
9799;SDS011;4939;52.00085300;4.17406100;2023-05-29T07:47:23;9.48;;;1.67;;
9799;SDS011;4939;52.00085300;4.17406100;2023-05-29T07:49:49;10.02;;;1.70;;
9799;SDS011;4939;52.00085300;4.17406100;2023-05-29T07:52:15;8.90;;;2.45;;
9799;SDS011;4939;52.00085300;4.17406100;2023-05-29T07:54:41;12.93;;;1.70;;
9799;SDS011;4939;52.00085300;4.17406100;2023-05-29T07:57:06;9.93;;;1.88;;
9799;SDS011;4939;52.00085300;4.17406100;2023-05-29T07:59:38;9.43;;;2.00;;
9799;SDS011;4939;52.00085300;4.17406100;2023-05-29T08:02:06;13.38;;;2.15;;
9799;SDS011;4939;52.00085300;4.17406100;2023-05-29T08:04:32;10.75;;;1.77;;
9799;SDS011;4939;52.00085300;4.17406100;2023-05-29T08:06:59;10.82;;;2.35;;
9799;SDS011;4939;52.00085300;4.17406100;2023-05-29T08:09:26;10.65;;;1.83;;
9799;SDS011;4939;52.00085300;4.17406100;2023-05-29T08:11:52;8.90;;;2.17;;
9799;SDS011;4939;52.00085300;4.17406100;2023-05-29T08:14:18;11.25;;;1.95;;
9799;SDS011;4939;52.00085300;4.17406100;2023-05-29T08:16:43;10.45;;;2.20;;
9799;SDS011;4939;52.00085300;4.17406100;2023-05-29T08:19:09;7.40;;;1.88;;
9799;SDS011;4939;52.00085300;4.17406100;2023-05-29T08:21:35;8.35;;;1.98;;
9799;SDS011;4939;52.00085300;4.17406100;2023-05-29T08:24:01;9.98;;;1.90;;
9799;SDS011;4939;52.00085300;4.17406100;2023-05-29T08:26:30;11.18;;;2.20;;
9799;SDS011;4939;52.00085300;4.17406100;2023-05-29T08:28:55;6.65;;;2.10;;
9799;SDS011;4939;52.00085300;4.17406100;2023-05-29T08:31:22;7.80;;;1.70;;
9799;SDS011;4939;52.00085300;4.17406100;2023-05-29T08:33:55;9.77;;;2.00;;
9799;SDS011;4939;52.00085300;4.17406100;2023-05-29T08:36:21;9.82;;;1.80;;
9799;SDS011;4939;52.00085300;4.17406100;2023-05-29T08:38:50;11.32;;;1.90;;
9799;SDS011;4939;52.00085300;4.17406100;2023-05-29T08:41:37;10.60;;;1.80;;
9799;SDS011;4939;52.00085300;4.17406100;2023-05-29T08:44:07;6.93;;;1.95;;
9799;SDS011;4939;52.00085300;4.17406100;2023-05-29T08:46:34;8.88;;;1.65;;
9799;SDS011;4939;52.00085300;4.17406100;2023-05-29T08:49:02;6.10;;;1.70;;
9799;SDS011;4939;52.00085300;4.17406100;2023-05-29T08:51:31;11.48;;;2.25;;
9799;SDS011;4939;52.00085300;4.17406100;2023-05-29T08:54:02;12.52;;;2.22;;
9799;SDS011;4939;52.00085300;4.17406100;2023-05-29T08:56:28;7.10;;;1.90;;
9799;SDS011;4939;52.00085300;4.17406100;2023-05-29T08:58:54;9.20;;;1.80;;
9799;SDS011;4939;52.00085300;4.17406100;2023-05-29T09:01:20;7.38;;;2.00;;
9799;SDS011;4939;52.00085300;4.17406100;2023-05-29T09:03:47;9.25;;;2.13;;
9799;SDS011;4939;52.00085300;4.17406100;2023-05-29T09:06:13;9.02;;;1.63;;
9799;SDS011;4939;52.00085300;4.17406100;2023-05-29T09:08:39;8.15;;;1.65;;
9799;SDS011;4939;52.00085300;4.17406100;2023-05-29T09:11:04;10.82;;;1.95;;
9799;SDS011;4939;52.00085300;4.17406100;2023-05-29T09:13:30;8.88;;;1.73;;
9799;SDS011;4939;52.00085300;4.17406100;2023-05-29T09:16:00;8.88;;;1.88;;
9799;SDS011;4939;52.00085300;4.17406100;2023-05-29T09:18:28;8.82;;;1.80;;
9799;SDS011;4939;52.00085300;4.17406100;2023-05-29T09:20:55;7.90;;;1.75;;
9799;SDS011;4939;52.00085300;4.17406100;2023-05-29T09:23:20;7.20;;;1.75;;
9799;SDS011;4939;52.00085300;4.17406100;2023-05-29T09:25:50;8.05;;;1.65;;
9799;SDS011;4939;52.00085300;4.17406100;2023-05-29T09:28:17;7.57;;;1.77;;
9799;SDS011;4939;52.00085300;4.17406100;2023-05-29T09:30:44;8.30;;;2.10;;
9799;SDS011;4939;52.00085300;4.17406100;2023-05-29T09:33:13;9.80;;;2.42;;
9799;SDS011;4939;52.00085300;4.17406100;2023-05-29T09:35:44;6.38;;;2.08;;
9799;SDS011;4939;52.00085300;4.17406100;2023-05-29T09:38:13;9.48;;;1.90;;
9799;SDS011;4939;52.00085300;4.17406100;2023-05-29T09:40:43;11.60;;;2.25;;
9799;SDS011;4939;52.00085300;4.17406100;2023-05-29T09:43:15;9.35;;;1.88;;
9799;SDS011;4939;52.00085300;4.17406100;2023-05-29T09:45:49;9.98;;;2.10;;
9799;SDS011;4939;52.00085300;4.17406100;2023-05-29T09:48:19;10.05;;;2.13;;
9799;SDS011;4939;52.00085300;4.17406100;2023-05-29T09:50:48;7.78;;;1.80;;
9799;SDS011;4939;52.00085300;4.17406100;2023-05-29T09:53:26;9.68;;;1.70;;
9799;SDS011;4939;52.00085300;4.17406100;2023-05-29T09:55:56;10.35;;;1.95;;
9799;SDS011;4939;52.00085300;4.17406100;2023-05-29T09:58:24;7.50;;;1.60;;
9799;SDS011;4939;52.00085300;4.17406100;2023-05-29T10:00:50;13.77;;;1.80;;
9799;SDS011;4939;52.00085300;4.17406100;2023-05-29T10:03:17;10.95;;;1.75;;
9799;SDS011;4939;52.00085300;4.17406100;2023-05-29T10:05:49;6.95;;;1.48;;
9799;SDS011;4939;52.00085300;4.17406100;2023-05-29T10:08:17;10.77;;;1.73;;
9799;SDS011;4939;52.00085300;4.17406100;2023-05-29T10:13:41;11.10;;;1.70;;
9799;SDS011;4939;52.00085300;4.17406100;2023-05-29T10:16:14;8.73;;;1.55;;
9799;SDS011;4939;52.00085300;4.17406100;2023-05-29T10:18:44;8.20;;;1.67;;
9799;SDS011;4939;52.00085300;4.17406100;2023-05-29T10:21:14;8.77;;;1.80;;
9799;SDS011;4939;52.00085300;4.17406100;2023-05-29T10:23:43;10.55;;;1.55;;
9799;SDS011;4939;52.00085300;4.17406100;2023-05-29T10:26:14;14.20;;;2.00;;
9799;SDS011;4939;52.00085300;4.17406100;2023-05-29T10:28:52;7.83;;;1.70;;
9799;SDS011;4939;52.00085300;4.17406100;2023-05-29T10:32:29;10.60;;;1.70;;
9799;SDS011;4939;52.00085300;4.17406100;2023-05-29T10:34:55;18.70;;;2.28;;
9799;SDS011;4939;52.00085300;4.17406100;2023-05-29T10:40:22;9.50;;;1.70;;
9799;SDS011;4939;52.00085300;4.17406100;2023-05-29T10:42:49;10.93;;;1.70;;
9799;SDS011;4939;52.00085300;4.17406100;2023-05-29T10:50:35;8.55;;;1.90;;
9799;SDS011;4939;52.00085300;4.17406100;2023-05-29T10:53:02;12.45;;;2.05;;
9799;SDS011;4939;52.00085300;4.17406100;2023-05-29T10:55:34;8.48;;;1.88;;
9799;SDS011;4939;52.00085300;4.17406100;2023-05-29T10:58:04;10.40;;;2.00;;
9799;SDS011;4939;52.00085300;4.17406100;2023-05-29T11:00:32;11.93;;;1.90;;
9799;SDS011;4939;52.00085300;4.17406100;2023-05-29T11:03:02;13.57;;;2.30;;
9799;SDS011;4939;52.00085300;4.17406100;2023-05-29T11:05:29;15.33;;;2.60;;
9799;SDS011;4939;52.00085300;4.17406100;2023-05-29T11:07:56;9.10;;;1.80;;
9799;SDS011;4939;52.00085300;4.17406100;2023-05-29T11:13:12;10.52;;;2.15;;
9799;SDS011;4939;52.00085300;4.17406100;2023-05-29T11:16:13;17.10;;;2.08;;
9799;SDS011;4939;52.00085300;4.17406100;2023-05-29T11:18:56;12.48;;;2.65;;
9799;SDS011;4939;52.00085300;4.17406100;2023-05-29T11:26:47;16.10;;;2.75;;
9799;SDS011;4939;52.00085300;4.17406100;2023-05-29T11:29:13;18.17;;;3.35;;
9799;SDS011;4939;52.00085300;4.17406100;2023-05-29T11:31:40;14.77;;;2.25;;
9799;SDS011;4939;52.00085300;4.17406100;2023-05-29T11:34:08;11.20;;;2.33;;
9799;SDS011;4939;52.00085300;4.17406100;2023-05-29T11:36:39;16.35;;;2.58;;
9799;SDS011;4939;52.00085300;4.17406100;2023-05-29T11:39:04;17.92;;;2.30;;
9799;SDS011;4939;52.00085300;4.17406100;2023-05-29T11:41:30;11.50;;;2.58;;
9799;SDS011;4939;52.00085300;4.17406100;2023-05-29T11:43:56;17.90;;;2.60;;
9799;SDS011;4939;52.00085300;4.17406100;2023-05-29T11:46:24;16.95;;;2.75;;
9799;SDS011;4939;52.00085300;4.17406100;2023-05-29T11:48:52;15.88;;;2.85;;
9799;SDS011;4939;52.00085300;4.17406100;2023-05-29T11:51:18;11.65;;;2.28;;
9799;SDS011;4939;52.00085300;4.17406100;2023-05-29T11:53:46;18.38;;;2.85;;
9799;SDS011;4939;52.00085300;4.17406100;2023-05-29T11:56:13;12.52;;;2.35;;
9799;SDS011;4939;52.00085300;4.17406100;2023-05-29T11:58:39;15.57;;;2.88;;
9799;SDS011;4939;52.00085300;4.17406100;2023-05-29T12:01:06;19.92;;;3.10;;
9799;SDS011;4939;52.00085300;4.17406100;2023-05-29T12:03:37;14.77;;;2.60;;
9799;SDS011;4939;52.00085300;4.17406100;2023-05-29T12:06:04;12.05;;;2.55;;
9799;SDS011;4939;52.00085300;4.17406100;2023-05-29T12:08:31;17.75;;;3.10;;
9799;SDS011;4939;52.00085300;4.17406100;2023-05-29T12:10:57;14.85;;;2.63;;
9799;SDS011;4939;52.00085300;4.17406100;2023-05-29T12:13:26;18.55;;;2.90;;
9799;SDS011;4939;52.00085300;4.17406100;2023-05-29T12:15:54;14.05;;;2.28;;
9799;SDS011;4939;52.00085300;4.17406100;2023-05-29T12:18:26;14.45;;;2.47;;
9799;SDS011;4939;52.00085300;4.17406100;2023-05-29T12:21:01;15.88;;;2.33;;
9799;SDS011;4939;52.00085300;4.17406100;2023-05-29T12:23:29;10.93;;;2.08;;
9799;SDS011;4939;52.00085300;4.17406100;2023-05-29T12:25:56;12.07;;;2.20;;
9799;SDS011;4939;52.00085300;4.17406100;2023-05-29T12:28:23;19.58;;;2.67;;
9799;SDS011;4939;52.00085300;4.17406100;2023-05-29T12:30:50;13.98;;;3.00;;
9799;SDS011;4939;52.00085300;4.17406100;2023-05-29T12:33:30;16.33;;;2.60;;
9799;SDS011;4939;52.00085300;4.17406100;2023-05-29T12:36:04;16.92;;;2.25;;
9799;SDS011;4939;52.00085300;4.17406100;2023-05-29T12:38:31;14.50;;;2.67;;
9799;SDS011;4939;52.00085300;4.17406100;2023-05-29T12:40:57;11.55;;;2.42;;
9799;SDS011;4939;52.00085300;4.17406100;2023-05-29T12:43:23;14.43;;;2.67;;
9799;SDS011;4939;52.00085300;4.17406100;2023-05-29T12:45:55;16.52;;;3.05;;
9799;SDS011;4939;52.00085300;4.17406100;2023-05-29T12:48:26;14.23;;;2.30;;
9799;SDS011;4939;52.00085300;4.17406100;2023-05-29T12:50:52;20.40;;;2.42;;
9799;SDS011;4939;52.00085300;4.17406100;2023-05-29T12:53:17;15.93;;;2.78;;
9799;SDS011;4939;52.00085300;4.17406100;2023-05-29T12:55:43;13.27;;;2.75;;
9799;SDS011;4939;52.00085300;4.17406100;2023-05-29T12:58:14;11.77;;;2.90;;
9799;SDS011;4939;52.00085300;4.17406100;2023-05-29T13:00:41;20.73;;;3.30;;
9799;SDS011;4939;52.00085300;4.17406100;2023-05-29T13:03:08;30.13;;;3.53;;
9799;SDS011;4939;52.00085300;4.17406100;2023-05-29T13:05:35;14.40;;;2.58;;
9799;SDS011;4939;52.00085300;4.17406100;2023-05-29T13:08:02;18.38;;;3.45;;
9799;SDS011;4939;52.00085300;4.17406100;2023-05-29T13:10:31;16.70;;;3.10;;
9799;SDS011;4939;52.00085300;4.17406100;2023-05-29T13:12:56;14.27;;;2.67;;
9799;SDS011;4939;52.00085300;4.17406100;2023-05-29T13:15:25;15.13;;;2.33;;
9799;SDS011;4939;52.00085300;4.17406100;2023-05-29T13:17:52;14.82;;;2.78;;
9799;SDS011;4939;52.00085300;4.17406100;2023-05-29T13:20:20;12.68;;;2.28;;
9799;SDS011;4939;52.00085300;4.17406100;2023-05-29T13:22:47;19.38;;;2.67;;
9799;SDS011;4939;52.00085300;4.17406100;2023-05-29T13:25:14;17.10;;;2.85;;
9799;SDS011;4939;52.00085300;4.17406100;2023-05-29T13:27:41;13.00;;;2.20;;
9799;SDS011;4939;52.00085300;4.17406100;2023-05-29T13:30:09;12.52;;;2.63;;
9799;SDS011;4939;52.00085300;4.17406100;2023-05-29T13:32:36;11.27;;;2.50;;
9799;SDS011;4939;52.00085300;4.17406100;2023-05-29T13:35:02;19.65;;;2.97;;
9799;SDS011;4939;52.00085300;4.17406100;2023-05-29T13:37:28;14.25;;;2.25;;
9799;SDS011;4939;52.00085300;4.17406100;2023-05-29T13:39:54;12.77;;;2.60;;